Estación Meteorológica Peña el Pijo (Robertgarden) [ 07/23/19 00:25:24 CEST ]

Fecha Hora Presion(HPa) Temp (°C) Humedad % Rocio (°C) Viento ( m/s) Direccion Lluvia 1Hora(mm) Lluvia 24H(mm) LLuvia Total(mm)
2019-May-15 01:01:47 1007.700 11.3 70 6.1         318.05
2019-May-15 02:01:42 1007.400 10.6 74 6.2         318.05
2019-May-15 03:01:42 1006.800 10.6 75 6.3         318.05
2019-May-15 04:01:38 1006.400 10.9 75 6.6         318.05
2019-May-15 05:01:37 1005.900 11.3 72 6.4         318.05
2019-May-15 06:01:41 1005.600 11.9 74 7.4         318.05
2019-May-15 07:01:38 1005.700 10.9 73 6.3         318.05
2019-May-15 08:02:01 1005.700 12.4 77 8.5         318.05
2019-May-15 09:01:56 1005.900 19.4 55 10.1         318.05
2019-May-15 10:01:56 1005.900 23.9 36 7.8         318.05
2019-May-15 11:01:49 1005.500 27.1 28 6.9         318.05
2019-May-15 12:01:47 1005.500 28.4 23 5.1 2.7 N     318.05
2019-May-15 13:01:36 1005.400 29.4 21 4.7 1.4 ENE     318.05
2019-May-15 14:01:45 1004.900 29.2 19 3.0 1.7 NNW     318.05
2019-May-15 15:01:46 1004.900 30.3 20 4.9         318.05
2019-May-15 16:01:49 1004.600 31.3 19 4.8         318.05
2019-May-15 17:01:59 1003.900 30.9 19 4.4         318.05
2019-May-15 18:01:53 1004.200 30.4 21 5.5 1.1 WNW     318.05
2019-May-15 19:01:45 1004.400 28.9 22 4.9         318.05
2019-May-15 20:01:53 1004.300 25.9 26 4.7         318.05
2019-May-15 21:01:49 1004.700 22.2 39 7.6         318.05
2019-May-15 22:01:40 1005.200 18.5 50 7.9         318.05
2019-May-15 23:01:49 1005.600 16.1 53 6.5         318.05

Temperatura Máxima:31°    Temperatura Mínima:10°
Presión Máxima:1007.700 Hpa    Presión Mínima:1003.900 Hpa


Volver